Terminal Aerodrome Forecast
Issued by NWS

Home | Current Version | Previous Version | Text Only | Print | Product List | Glossary On
Versions: 1 2 3 4 5 6 7 8 9 10 11 12 13
295
FTUS46 KMTR 231730
TAFSJC
TAF
KSJC 231730Z 2318/2418 VRB04KT P6SM FEW004
     FM232300 31012KT P6SM SKC
     FM240300 30008KT P6SM FEW007
     FM240800 32004KT P6SM BKN010
     FM241400 15007KT P6SM FEW004 SCT010=

USA.gov is the U.S. government's official web portal to all federal, state and local government web resources and services.